sensor_id;sensor_type;location;lat;lon;timestamp;P1;durP1;ratioP1;P2;durP2;ratioP2
12719;SDS011;6424;48.520;11.228;2023-03-05T00:01:06;35.83;;;21.33;;
12719;SDS011;6424;48.520;11.228;2023-03-05T00:03:52;35.47;;;20.90;;
12719;SDS011;6424;48.520;11.228;2023-03-05T00:06:34;37.83;;;21.30;;
12719;SDS011;6424;48.520;11.228;2023-03-05T00:09:15;37.03;;;20.93;;
12719;SDS011;6424;48.520;11.228;2023-03-05T00:11:56;31.87;;;21.37;;
12719;SDS011;6424;48.520;11.228;2023-03-05T00:14:37;34.63;;;22.30;;
12719;SDS011;6424;48.520;11.228;2023-03-05T00:17:18;35.87;;;22.10;;
12719;SDS011;6424;48.520;11.228;2023-03-05T00:19:43;34.33;;;21.07;;
12719;SDS011;6424;48.520;11.228;2023-03-05T00:22:24;36.60;;;22.40;;
12719;SDS011;6424;48.520;11.228;2023-03-05T00:25:05;36.40;;;23.13;;
12719;SDS011;6424;48.520;11.228;2023-03-05T00:27:46;41.70;;;22.47;;
12719;SDS011;6424;48.520;11.228;2023-03-05T00:30:27;38.13;;;22.23;;
12719;SDS011;6424;48.520;11.228;2023-03-05T00:32:53;36.67;;;22.20;;
12719;SDS011;6424;48.520;11.228;2023-03-05T00:35:40;39.20;;;22.63;;
12719;SDS011;6424;48.520;11.228;2023-03-05T00:38:23;37.40;;;22.00;;
12719;SDS011;6424;48.520;11.228;2023-03-05T00:41:03;36.73;;;22.67;;
12719;SDS011;6424;48.520;11.228;2023-03-05T00:43:44;37.83;;;23.80;;
12719;SDS011;6424;48.520;11.228;2023-03-05T00:46:26;41.53;;;22.57;;
12719;SDS011;6424;48.520;11.228;2023-03-05T00:49:07;37.77;;;21.67;;
12719;SDS011;6424;48.520;11.228;2023-03-05T00:51:47;34.70;;;21.40;;
12719;SDS011;6424;48.520;11.228;2023-03-05T00:54:28;37.23;;;22.07;;
12719;SDS011;6424;48.520;11.228;2023-03-05T00:57:09;41.70;;;22.57;;
12719;SDS011;6424;48.520;11.228;2023-03-05T00:59:50;36.47;;;22.37;;
12719;SDS011;6424;48.520;11.228;2023-03-05T01:02:31;41.60;;;24.47;;
12719;SDS011;6424;48.520;11.228;2023-03-05T01:05:12;37.77;;;23.37;;
12719;SDS011;6424;48.520;11.228;2023-03-05T01:07:39;38.00;;;22.90;;
12719;SDS011;6424;48.520;11.228;2023-03-05T01:10:20;35.57;;;21.70;;
12719;SDS011;6424;48.520;11.228;2023-03-05T01:12:47;37.97;;;22.23;;
12719;SDS011;6424;48.520;11.228;2023-03-05T01:15:28;36.93;;;21.47;;
12719;SDS011;6424;48.520;11.228;2023-03-05T01:18:09;31.73;;;21.50;;
12719;SDS011;6424;48.520;11.228;2023-03-05T01:20:50;40.87;;;21.90;;
12719;SDS011;6424;48.520;11.228;2023-03-05T01:23:31;34.83;;;22.87;;
12719;SDS011;6424;48.520;11.228;2023-03-05T01:26:13;38.80;;;21.77;;
12719;SDS011;6424;48.520;11.228;2023-03-05T01:28:54;36.63;;;21.00;;
12719;SDS011;6424;48.520;11.228;2023-03-05T01:31:35;34.00;;;20.73;;
12719;SDS011;6424;48.520;11.228;2023-03-05T01:34:15;33.27;;;21.57;;
12719;SDS011;6424;48.520;11.228;2023-03-05T01:36:57;37.27;;;21.43;;
12719;SDS011;6424;48.520;11.228;2023-03-05T01:39:37;39.00;;;23.00;;
12719;SDS011;6424;48.520;11.228;2023-03-05T01:42:18;38.37;;;22.47;;
12719;SDS011;6424;48.520;11.228;2023-03-05T01:45:05;34.87;;;22.10;;
12719;SDS011;6424;48.520;11.228;2023-03-05T01:47:49;39.43;;;23.00;;
12719;SDS011;6424;48.520;11.228;2023-03-05T01:50:30;36.77;;;22.57;;
12719;SDS011;6424;48.520;11.228;2023-03-05T01:53:11;36.93;;;23.50;;
12719;SDS011;6424;48.520;11.228;2023-03-05T01:55:52;39.97;;;23.13;;
12719;SDS011;6424;48.520;11.228;2023-03-05T01:58:18;35.30;;;21.57;;
12719;SDS011;6424;48.520;11.228;2023-03-05T02:00:59;39.17;;;22.47;;
12719;SDS011;6424;48.520;11.228;2023-03-05T02:03:41;37.50;;;21.67;;
12719;SDS011;6424;48.520;11.228;2023-03-05T02:06:22;33.13;;;21.10;;
12719;SDS011;6424;48.520;11.228;2023-03-05T02:09:03;36.70;;;22.40;;
12719;SDS011;6424;48.520;11.228;2023-03-05T02:11:44;36.17;;;21.00;;
12719;SDS011;6424;48.520;11.228;2023-03-05T02:14:24;35.13;;;20.83;;
12719;SDS011;6424;48.520;11.228;2023-03-05T02:17:06;37.53;;;21.70;;
12719;SDS011;6424;48.520;11.228;2023-03-05T02:19:50;36.53;;;20.77;;
12719;SDS011;6424;48.520;11.228;2023-03-05T02:22:33;37.50;;;20.73;;
12719;SDS011;6424;48.520;11.228;2023-03-05T02:25:18;33.97;;;20.67;;
12719;SDS011;6424;48.520;11.228;2023-03-05T02:30:49;34.60;;;19.20;;
12719;SDS011;6424;48.520;11.228;2023-03-05T02:33:30;33.80;;;20.60;;
12719;SDS011;6424;48.520;11.228;2023-03-05T02:36:11;35.57;;;20.17;;
12719;SDS011;6424;48.520;11.228;2023-03-05T02:38:52;31.13;;;19.53;;
12719;SDS011;6424;48.520;11.228;2023-03-05T02:41:36;37.13;;;19.97;;
12719;SDS011;6424;48.520;11.228;2023-03-05T02:44:16;33.13;;;19.93;;
12719;SDS011;6424;48.520;11.228;2023-03-05T02:46:57;30.13;;;19.20;;
12719;SDS011;6424;48.520;11.228;2023-03-05T02:49:38;32.37;;;19.67;;
12719;SDS011;6424;48.520;11.228;2023-03-05T02:52:19;38.23;;;20.57;;
12719;SDS011;6424;48.520;11.228;2023-03-05T02:54:47;34.47;;;21.40;;
12719;SDS011;6424;48.520;11.228;2023-03-05T02:57:29;33.47;;;20.17;;
12719;SDS011;6424;48.520;11.228;2023-03-05T03:00:10;31.13;;;19.27;;
12719;SDS011;6424;48.520;11.228;2023-03-05T03:02:51;31.27;;;19.07;;
12719;SDS011;6424;48.520;11.228;2023-03-05T03:05:32;32.87;;;18.87;;
12719;SDS011;6424;48.520;11.228;2023-03-05T03:08:13;32.40;;;18.93;;
12719;SDS011;6424;48.520;11.228;2023-03-05T03:10:54;37.20;;;20.20;;
12719;SDS011;6424;48.520;11.228;2023-03-05T03:13:22;31.60;;;20.37;;
12719;SDS011;6424;48.520;11.228;2023-03-05T03:16:05;32.07;;;19.17;;
12719;SDS011;6424;48.520;11.228;2023-03-05T03:18:47;33.07;;;20.57;;
12719;SDS011;6424;48.520;11.228;2023-03-05T03:21:28;34.17;;;20.17;;
12719;SDS011;6424;48.520;11.228;2023-03-05T03:24:09;32.67;;;19.90;;
12719;SDS011;6424;48.520;11.228;2023-03-05T03:26:50;32.07;;;20.23;;
12719;SDS011;6424;48.520;11.228;2023-03-05T03:29:30;34.73;;;20.30;;
12719;SDS011;6424;48.520;11.228;2023-03-05T03:32:11;35.90;;;20.43;;
12719;SDS011;6424;48.520;11.228;2023-03-05T03:34:52;34.80;;;20.37;;
12719;SDS011;6424;48.520;11.228;2023-03-05T03:37:33;33.17;;;19.80;;
12719;SDS011;6424;48.520;11.228;2023-03-05T03:40:14;29.60;;;18.77;;
12719;SDS011;6424;48.520;11.228;2023-03-05T03:42:55;40.80;;;21.07;;
12719;SDS011;6424;48.520;11.228;2023-03-05T03:45:38;33.40;;;19.70;;
12719;SDS011;6424;48.520;11.228;2023-03-05T03:48:21;34.23;;;19.87;;
12719;SDS011;6424;48.520;11.228;2023-03-05T03:51:05;33.03;;;19.97;;
12719;SDS011;6424;48.520;11.228;2023-03-05T03:53:47;33.73;;;21.47;;
12719;SDS011;6424;48.520;11.228;2023-03-05T03:56:12;32.77;;;19.70;;
12719;SDS011;6424;48.520;11.228;2023-03-05T03:58:38;35.73;;;21.10;;
12719;SDS011;6424;48.520;11.228;2023-03-05T04:01:20;36.13;;;21.03;;
12719;SDS011;6424;48.520;11.228;2023-03-05T04:04:01;36.23;;;20.80;;
12719;SDS011;6424;48.520;11.228;2023-03-05T04:06:42;35.00;;;21.30;;
12719;SDS011;6424;48.520;11.228;2023-03-05T04:09:23;38.67;;;21.63;;
12719;SDS011;6424;48.520;11.228;2023-03-05T04:12:04;34.37;;;20.00;;
12719;SDS011;6424;48.520;11.228;2023-03-05T04:14:45;35.23;;;20.77;;
12719;SDS011;6424;48.520;11.228;2023-03-05T04:17:27;39.00;;;21.73;;
12719;SDS011;6424;48.520;11.228;2023-03-05T04:20:08;32.40;;;20.77;;
12719;SDS011;6424;48.520;11.228;2023-03-05T04:22:50;35.67;;;21.20;;
12719;SDS011;6424;48.520;11.228;2023-03-05T04:25:15;34.07;;;21.17;;
12719;SDS011;6424;48.520;11.228;2023-03-05T04:27:56;35.57;;;22.43;;
12719;SDS011;6424;48.520;11.228;2023-03-05T04:30:37;37.23;;;21.37;;
12719;SDS011;6424;48.520;11.228;2023-03-05T04:33:18;34.30;;;21.23;;
12719;SDS011;6424;48.520;11.228;2023-03-05T04:35:59;36.27;;;22.23;;
12719;SDS011;6424;48.520;11.228;2023-03-05T04:38:39;38.77;;;21.50;;
12719;SDS011;6424;48.520;11.228;2023-03-05T04:41:20;34.03;;;21.23;;
12719;SDS011;6424;48.520;11.228;2023-03-05T04:44:01;37.87;;;22.43;;
12719;SDS011;6424;48.520;11.228;2023-03-05T04:46:42;39.60;;;21.43;;
12719;SDS011;6424;48.520;11.228;2023-03-05T04:49:23;35.80;;;21.33;;
12719;SDS011;6424;48.520;11.228;2023-03-05T04:52:04;39.43;;;22.10;;
12719;SDS011;6424;48.520;11.228;2023-03-05T04:54:45;40.33;;;23.20;;
12719;SDS011;6424;48.520;11.228;2023-03-05T04:57:10;37.67;;;22.23;;
12719;SDS011;6424;48.520;11.228;2023-03-05T04:59:37;38.73;;;21.67;;
12719;SDS011;6424;48.520;11.228;2023-03-05T05:02:18;36.70;;;20.83;;
12719;SDS011;6424;48.520;11.228;2023-03-05T05:04:58;42.37;;;21.93;;
12719;SDS011;6424;48.520;11.228;2023-03-05T05:07:24;37.50;;;21.93;;
12719;SDS011;6424;48.520;11.228;2023-03-05T05:10:05;37.97;;;22.53;;
12719;SDS011;6424;48.520;11.228;2023-03-05T05:12:47;44.17;;;22.43;;
12719;SDS011;6424;48.520;11.228;2023-03-05T05:15:28;36.97;;;21.33;;
12719;SDS011;6424;48.520;11.228;2023-03-05T05:18:09;38.30;;;22.37;;
12719;SDS011;6424;48.520;11.228;2023-03-05T05:20:49;39.17;;;22.57;;
12719;SDS011;6424;48.520;11.228;2023-03-05T05:23:30;39.20;;;22.73;;
12719;SDS011;6424;48.520;11.228;2023-03-05T05:26:11;37.87;;;21.73;;
12719;SDS011;6424;48.520;11.228;2023-03-05T05:28:53;37.83;;;22.27;;
12719;SDS011;6424;48.520;11.228;2023-03-05T05:31:34;37.87;;;22.13;;
12719;SDS011;6424;48.520;11.228;2023-03-05T05:34:14;38.33;;;21.97;;
12719;SDS011;6424;48.520;11.228;2023-03-05T05:36:55;38.17;;;22.30;;
12719;SDS011;6424;48.520;11.228;2023-03-05T05:39:36;36.93;;;22.10;;
12719;SDS011;6424;48.520;11.228;2023-03-05T05:42:21;36.67;;;22.13;;
12719;SDS011;6424;48.520;11.228;2023-03-05T05:45:03;41.60;;;22.97;;
12719;SDS011;6424;48.520;11.228;2023-03-05T05:47:44;41.17;;;22.00;;
12719;SDS011;6424;48.520;11.228;2023-03-05T05:50:25;40.83;;;23.67;;
12719;SDS011;6424;48.520;11.228;2023-03-05T05:53:06;40.00;;;22.37;;
12719;SDS011;6424;48.520;11.228;2023-03-05T05:55:47;38.67;;;22.43;;
12719;SDS011;6424;48.520;11.228;2023-03-05T05:58:28;37.57;;;22.17;;
12719;SDS011;6424;48.520;11.228;2023-03-05T06:01:19;40.60;;;23.10;;
12719;SDS011;6424;48.520;11.228;2023-03-05T06:04:04;43.00;;;23.20;;
12719;SDS011;6424;48.520;11.228;2023-03-05T06:06:45;37.90;;;22.67;;
12719;SDS011;6424;48.520;11.228;2023-03-05T06:09:26;38.83;;;22.40;;
12719;SDS011;6424;48.520;11.228;2023-03-05T06:12:07;42.57;;;23.87;;
12719;SDS011;6424;48.520;11.228;2023-03-05T06:14:47;41.80;;;24.67;;
12719;SDS011;6424;48.520;11.228;2023-03-05T06:17:28;42.47;;;22.53;;
12719;SDS011;6424;48.520;11.228;2023-03-05T06:20:09;41.70;;;23.73;;
12719;SDS011;6424;48.520;11.228;2023-03-05T06:22:50;46.70;;;22.57;;
12719;SDS011;6424;48.520;11.228;2023-03-05T06:25:31;40.47;;;23.63;;
12719;SDS011;6424;48.520;11.228;2023-03-05T06:28:12;39.97;;;22.13;;
12719;SDS011;6424;48.520;11.228;2023-03-05T06:31:03;44.13;;;24.00;;
12719;SDS011;6424;48.520;11.228;2023-03-05T06:33:46;41.03;;;23.63;;
12719;SDS011;6424;48.520;11.228;2023-03-05T06:36:14;40.63;;;24.03;;
12719;SDS011;6424;48.520;11.228;2023-03-05T06:38:56;41.20;;;23.47;;
12719;SDS011;6424;48.520;11.228;2023-03-05T06:41:37;42.27;;;23.37;;
12719;SDS011;6424;48.520;11.228;2023-03-05T06:44:18;36.90;;;21.90;;
12719;SDS011;6424;48.520;11.228;2023-03-05T06:46:59;42.50;;;23.17;;
12719;SDS011;6424;48.520;11.228;2023-03-05T06:49:40;40.73;;;22.43;;
12719;SDS011;6424;48.520;11.228;2023-03-05T06:52:21;45.87;;;24.60;;
12719;SDS011;6424;48.520;11.228;2023-03-05T06:54:46;38.17;;;22.63;;
12719;SDS011;6424;48.520;11.228;2023-03-05T06:57:27;43.27;;;23.97;;
12719;SDS011;6424;48.520;11.228;2023-03-05T07:00:08;41.93;;;23.83;;
12719;SDS011;6424;48.520;11.228;2023-03-05T07:02:38;41.37;;;24.23;;
12719;SDS011;6424;48.520;11.228;2023-03-05T07:05:19;45.77;;;25.67;;
12719;SDS011;6424;48.520;11.228;2023-03-05T07:08:00;45.57;;;26.57;;
12719;SDS011;6424;48.520;11.228;2023-03-05T07:10:43;41.23;;;25.03;;
12719;SDS011;6424;48.520;11.228;2023-03-05T07:13:09;39.93;;;23.77;;
12719;SDS011;6424;48.520;11.228;2023-03-05T07:15:50;42.60;;;23.30;;
12719;SDS011;6424;48.520;11.228;2023-03-05T07:18:31;39.23;;;23.03;;
12719;SDS011;6424;48.520;11.228;2023-03-05T07:21:14;39.73;;;25.00;;
12719;SDS011;6424;48.520;11.228;2023-03-05T07:24:00;41.67;;;24.63;;
12719;SDS011;6424;48.520;11.228;2023-03-05T07:26:43;35.40;;;23.37;;
12719;SDS011;6424;48.520;11.228;2023-03-05T07:29:24;39.20;;;23.97;;
12719;SDS011;6424;48.520;11.228;2023-03-05T07:32:06;40.47;;;23.67;;
12719;SDS011;6424;48.520;11.228;2023-03-05T07:34:47;40.93;;;24.30;;
12719;SDS011;6424;48.520;11.228;2023-03-05T07:37:27;43.07;;;23.83;;
12719;SDS011;6424;48.520;11.228;2023-03-05T07:40:08;40.53;;;23.13;;
12719;SDS011;6424;48.520;11.228;2023-03-05T07:42:35;45.03;;;23.97;;
12719;SDS011;6424;48.520;11.228;2023-03-05T07:45:15;41.63;;;22.70;;
12719;SDS011;6424;48.520;11.228;2023-03-05T07:47:42;39.80;;;23.70;;
12719;SDS011;6424;48.520;11.228;2023-03-05T07:50:22;40.43;;;23.03;;
12719;SDS011;6424;48.520;11.228;2023-03-05T07:53:03;40.77;;;22.90;;
12719;SDS011;6424;48.520;11.228;2023-03-05T07:55:45;41.80;;;23.80;;
12719;SDS011;6424;48.520;11.228;2023-03-05T07:58:11;42.30;;;23.67;;
12719;SDS011;6424;48.520;11.228;2023-03-05T08:00:53;41.23;;;22.80;;
12719;SDS011;6424;48.520;11.228;2023-03-05T08:03:34;37.80;;;22.63;;
12719;SDS011;6424;48.520;11.228;2023-03-05T08:06:14;42.03;;;23.77;;
12719;SDS011;6424;48.520;11.228;2023-03-05T08:08:56;41.40;;;23.60;;
12719;SDS011;6424;48.520;11.228;2023-03-05T08:11:38;42.37;;;24.00;;
12719;SDS011;6424;48.520;11.228;2023-03-05T08:14:19;42.97;;;23.60;;
12719;SDS011;6424;48.520;11.228;2023-03-05T08:17:00;37.83;;;23.13;;
12719;SDS011;6424;48.520;11.228;2023-03-05T08:19:42;46.50;;;24.80;;
12719;SDS011;6424;48.520;11.228;2023-03-05T08:22:23;43.40;;;24.17;;
12719;SDS011;6424;48.520;11.228;2023-03-05T08:25:04;41.50;;;24.10;;
12719;SDS011;6424;48.520;11.228;2023-03-05T08:27:46;39.80;;;21.43;;
12719;SDS011;6424;48.520;11.228;2023-03-05T08:30:27;41.73;;;23.60;;
12719;SDS011;6424;48.520;11.228;2023-03-05T08:33:08;44.93;;;23.90;;
12719;SDS011;6424;48.520;11.228;2023-03-05T08:35:49;35.53;;;21.93;;
12719;SDS011;6424;48.520;11.228;2023-03-05T08:38:30;36.07;;;22.23;;
12719;SDS011;6424;48.520;11.228;2023-03-05T08:41:11;40.27;;;23.17;;
12719;SDS011;6424;48.520;11.228;2023-03-05T08:43:52;39.30;;;22.67;;
12719;SDS011;6424;48.520;11.228;2023-03-05T08:46:33;40.67;;;23.20;;
12719;SDS011;6424;48.520;11.228;2023-03-05T08:49:13;39.20;;;22.60;;
12719;SDS011;6424;48.520;11.228;2023-03-05T08:51:54;40.63;;;23.33;;
12719;SDS011;6424;48.520;11.228;2023-03-05T08:54:35;40.07;;;22.33;;
12719;SDS011;6424;48.520;11.228;2023-03-05T08:57:16;40.57;;;23.40;;
12719;SDS011;6424;48.520;11.228;2023-03-05T08:59:57;42.67;;;23.67;;
12719;SDS011;6424;48.520;11.228;2023-03-05T09:02:38;43.37;;;23.83;;
12719;SDS011;6424;48.520;11.228;2023-03-05T09:05:19;39.63;;;23.80;;
12719;SDS011;6424;48.520;11.228;2023-03-05T09:08:00;38.10;;;22.17;;
12719;SDS011;6424;48.520;11.228;2023-03-05T09:10:41;37.43;;;20.67;;
12719;SDS011;6424;48.520;11.228;2023-03-05T09:13:22;39.60;;;23.00;;
12719;SDS011;6424;48.520;11.228;2023-03-05T09:16:04;39.27;;;22.03;;
12719;SDS011;6424;48.520;11.228;2023-03-05T09:18:46;42.60;;;23.60;;
12719;SDS011;6424;48.520;11.228;2023-03-05T09:21:27;38.70;;;22.23;;
12719;SDS011;6424;48.520;11.228;2023-03-05T09:24:08;37.80;;;21.97;;
12719;SDS011;6424;48.520;11.228;2023-03-05T09:26:49;38.77;;;21.97;;
12719;SDS011;6424;48.520;11.228;2023-03-05T09:29:30;38.77;;;21.57;;
12719;SDS011;6424;48.520;11.228;2023-03-05T09:32:10;40.13;;;22.50;;
12719;SDS011;6424;48.520;11.228;2023-03-05T09:34:36;41.47;;;22.57;;
12719;SDS011;6424;48.520;11.228;2023-03-05T09:37:17;33.77;;;20.80;;
12719;SDS011;6424;48.520;11.228;2023-03-05T09:39:43;34.70;;;20.93;;
12719;SDS011;6424;48.520;11.228;2023-03-05T09:51:28;39.93;;;22.47;;
12719;SDS011;6424;48.520;11.228;2023-03-05T09:57:04;40.70;;;24.70;;
12719;SDS011;6424;48.520;11.228;2023-03-05T09:59:56;33.77;;;22.43;;
12719;SDS011;6424;48.520;11.228;2023-03-05T10:02:46;36.07;;;21.90;;
12719;SDS011;6424;48.520;11.228;2023-03-05T10:05:42;37.33;;;21.60;;
12719;SDS011;6424;48.520;11.228;2023-03-05T10:08:42;37.60;;;22.43;;
12719;SDS011;6424;48.520;11.228;2023-03-05T10:11:56;32.40;;;20.53;;
12719;SDS011;6424;48.520;11.228;2023-03-05T10:14:30;45.27;;;26.77;;
12719;SDS011;6424;48.520;11.228;2023-03-05T10:21:08;36.07;;;23.07;;
12719;SDS011;6424;48.520;11.228;2023-03-05T10:26:41;39.93;;;22.07;;
12719;SDS011;6424;48.520;11.228;2023-03-05T10:29:44;37.03;;;20.47;;
12719;SDS011;6424;48.520;11.228;2023-03-05T10:38:36;36.07;;;20.93;;
12719;SDS011;6424;48.520;11.228;2023-03-05T10:41:38;37.63;;;20.67;;
12719;SDS011;6424;48.520;11.228;2023-03-05T10:44:35;32.90;;;20.20;;
12719;SDS011;6424;48.520;11.228;2023-03-05T10:53:27;32.90;;;19.00;;
12719;SDS011;6424;48.520;11.228;2023-03-05T10:56:29;34.43;;;20.10;;
12719;SDS011;6424;48.520;11.228;2023-03-05T10:59:10;33.63;;;19.43;;
12719;SDS011;6424;48.520;11.228;2023-03-05T11:02:00;34.20;;;19.67;;
12719;SDS011;6424;48.520;11.228;2023-03-05T11:04:44;32.60;;;19.80;;
12719;SDS011;6424;48.520;11.228;2023-03-05T11:07:31;36.80;;;20.80;;
12719;SDS011;6424;48.520;11.228;2023-03-05T11:12:26;28.07;;;18.10;;
12719;SDS011;6424;48.520;11.228;2023-03-05T11:21:10;27.63;;;17.00;;
12719;SDS011;6424;48.520;11.228;2023-03-05T11:24:02;27.00;;;16.23;;
12719;SDS011;6424;48.520;11.228;2023-03-05T11:26:50;33.13;;;17.83;;
12719;SDS011;6424;48.520;11.228;2023-03-05T11:29:22;30.67;;;17.77;;
12719;SDS011;6424;48.520;11.228;2023-03-05T11:32:15;30.90;;;17.00;;
12719;SDS011;6424;48.520;11.228;2023-03-05T11:35:01;28.57;;;15.90;;
12719;SDS011;6424;48.520;11.228;2023-03-05T11:38:01;25.77;;;15.07;;
12719;SDS011;6424;48.520;11.228;2023-03-05T11:40:29;25.17;;;14.53;;
12719;SDS011;6424;48.520;11.228;2023-03-05T11:43:15;23.47;;;15.73;;
12719;SDS011;6424;48.520;11.228;2023-03-05T11:45:59;25.13;;;15.50;;
12719;SDS011;6424;48.520;11.228;2023-03-05T11:48:42;22.67;;;13.63;;
12719;SDS011;6424;48.520;11.228;2023-03-05T11:51:27;22.00;;;14.00;;
12719;SDS011;6424;48.520;11.228;2023-03-05T11:54:18;21.17;;;12.53;;
12719;SDS011;6424;48.520;11.228;2023-03-05T11:57:03;18.43;;;12.40;;
12719;SDS011;6424;48.520;11.228;2023-03-05T11:59:45;26.57;;;14.60;;
12719;SDS011;6424;48.520;11.228;2023-03-05T12:02:27;16.70;;;11.43;;
12719;SDS011;6424;48.520;11.228;2023-03-05T12:05:12;19.77;;;11.87;;
12719;SDS011;6424;48.520;11.228;2023-03-05T12:07:56;22.30;;;13.37;;
12719;SDS011;6424;48.520;11.228;2023-03-05T12:10:40;23.00;;;12.27;;
12719;SDS011;6424;48.520;11.228;2023-03-05T12:13:34;17.97;;;11.80;;
12719;SDS011;6424;48.520;11.228;2023-03-05T12:16:40;20.07;;;12.30;;
12719;SDS011;6424;48.520;11.228;2023-03-05T12:19:29;18.67;;;12.07;;
12719;SDS011;6424;48.520;11.228;2023-03-05T12:22:36;17.10;;;11.97;;
12719;SDS011;6424;48.520;11.228;2023-03-05T12:25:43;17.90;;;11.10;;
12719;SDS011;6424;48.520;11.228;2023-03-05T12:35:20;20.30;;;12.07;;
12719;SDS011;6424;48.520;11.228;2023-03-05T12:40:02;20.03;;;11.87;;
12719;SDS011;6424;48.520;11.228;2023-03-05T12:47:47;22.30;;;13.00;;
12719;SDS011;6424;48.520;11.228;2023-03-05T12:53:18;23.73;;;13.00;;
12719;SDS011;6424;48.520;11.228;2023-03-05T12:58:45;21.00;;;13.43;;
12719;SDS011;6424;48.520;11.228;2023-03-05T13:01:36;22.93;;;12.73;;
12719;SDS011;6424;48.520;11.228;2023-03-05T13:04:06;23.20;;;14.80;;
12719;SDS011;6424;48.520;11.228;2023-03-05T13:06:59;23.10;;;14.17;;
12719;SDS011;6424;48.520;11.228;2023-03-05T13:09:55;20.37;;;12.70;;
12719;SDS011;6424;48.520;11.228;2023-03-05T13:12:37;17.67;;;11.37;;
12719;SDS011;6424;48.520;11.228;2023-03-05T13:15:18;21.63;;;12.53;;
12719;SDS011;6424;48.520;11.228;2023-03-05T13:18:01;21.17;;;12.60;;
12719;SDS011;6424;48.520;11.228;2023-03-05T13:20:47;19.30;;;11.90;;
12719;SDS011;6424;48.520;11.228;2023-03-05T13:23:44;18.10;;;11.53;;
12719;SDS011;6424;48.520;11.228;2023-03-05T13:26:39;15.07;;;10.30;;
12719;SDS011;6424;48.520;11.228;2023-03-05T13:29:21;15.97;;;9.90;;
12719;SDS011;6424;48.520;11.228;2023-03-05T13:32:23;15.43;;;8.73;;
12719;SDS011;6424;48.520;11.228;2023-03-05T13:35:10;15.77;;;8.80;;
12719;SDS011;6424;48.520;11.228;2023-03-05T13:37:52;12.77;;;9.07;;
12719;SDS011;6424;48.520;11.228;2023-03-05T13:40:33;14.53;;;8.37;;
12719;SDS011;6424;48.520;11.228;2023-03-05T13:43:09;12.87;;;8.70;;
12719;SDS011;6424;48.520;11.228;2023-03-05T13:45:52;13.20;;;8.87;;
12719;SDS011;6424;48.520;11.228;2023-03-05T13:48:20;13.23;;;8.50;;
12719;SDS011;6424;48.520;11.228;2023-03-05T13:51:01;12.37;;;8.13;;
12719;SDS011;6424;48.520;11.228;2023-03-05T13:53:46;13.37;;;9.13;;
12719;SDS011;6424;48.520;11.228;2023-03-05T13:56:28;16.20;;;10.10;;
12719;SDS011;6424;48.520;11.228;2023-03-05T13:59:15;12.60;;;9.27;;
12719;SDS011;6424;48.520;11.228;2023-03-05T14:01:58;14.33;;;9.67;;
12719;SDS011;6424;48.520;11.228;2023-03-05T14:04:41;12.03;;;8.07;;
12719;SDS011;6424;48.520;11.228;2023-03-05T14:07:26;14.80;;;9.50;;
12719;SDS011;6424;48.520;11.228;2023-03-05T14:13:12;18.97;;;11.40;;
12719;SDS011;6424;48.520;11.228;2023-03-05T14:16:11;13.33;;;8.53;;
12719;SDS011;6424;48.520;11.228;2023-03-05T14:18:55;12.83;;;8.43;;
12719;SDS011;6424;48.520;11.228;2023-03-05T14:21:42;12.23;;;8.53;;
12719;SDS011;6424;48.520;11.228;2023-03-05T14:24:25;12.40;;;8.80;;
12719;SDS011;6424;48.520;11.228;2023-03-05T14:27:14;12.20;;;8.60;;
12719;SDS011;6424;48.520;11.228;2023-03-05T14:29:44;12.70;;;8.87;;
12719;SDS011;6424;48.520;11.228;2023-03-05T14:32:32;13.10;;;9.37;;
12719;SDS011;6424;48.520;11.228;2023-03-05T14:35:16;15.63;;;8.50;;
12719;SDS011;6424;48.520;11.228;2023-03-05T14:37:59;12.67;;;8.13;;
12719;SDS011;6424;48.520;11.228;2023-03-05T14:40:40;11.50;;;7.47;;
12719;SDS011;6424;48.520;11.228;2023-03-05T14:43:21;12.57;;;8.43;;
12719;SDS011;6424;48.520;11.228;2023-03-05T14:46:03;15.13;;;9.40;;
12719;SDS011;6424;48.520;11.228;2023-03-05T14:48:44;17.43;;;11.57;;
12719;SDS011;6424;48.520;11.228;2023-03-05T14:51:25;15.53;;;8.97;;
12719;SDS011;6424;48.520;11.228;2023-03-05T14:54:06;13.90;;;9.30;;
12719;SDS011;6424;48.520;11.228;2023-03-05T14:56:55;11.40;;;8.37;;
12719;SDS011;6424;48.520;11.228;2023-03-05T14:59:36;12.43;;;8.77;;
12719;SDS011;6424;48.520;11.228;2023-03-05T15:02:18;12.47;;;8.57;;
12719;SDS011;6424;48.520;11.228;2023-03-05T15:05:01;13.83;;;8.57;;
12719;SDS011;6424;48.520;11.228;2023-03-05T15:07:42;11.27;;;8.73;;
12719;SDS011;6424;48.520;11.228;2023-03-05T15:10:24;11.93;;;8.90;;
12719;SDS011;6424;48.520;11.228;2023-03-05T15:13:05;14.53;;;9.03;;
12719;SDS011;6424;48.520;11.228;2023-03-05T15:15:46;18.53;;;9.20;;
12719;SDS011;6424;48.520;11.228;2023-03-05T15:18:27;12.20;;;9.07;;
12719;SDS011;6424;48.520;11.228;2023-03-05T15:21:08;14.37;;;10.13;;
12719;SDS011;6424;48.520;11.228;2023-03-05T15:23:49;14.77;;;9.63;;
12719;SDS011;6424;48.520;11.228;2023-03-05T15:26:30;11.87;;;8.63;;
12719;SDS011;6424;48.520;11.228;2023-03-05T15:29:11;21.80;;;12.03;;
12719;SDS011;6424;48.520;11.228;2023-03-05T15:31:52;14.40;;;9.40;;
12719;SDS011;6424;48.520;11.228;2023-03-05T15:34:33;18.17;;;10.03;;
12719;SDS011;6424;48.520;11.228;2023-03-05T15:37:14;15.63;;;9.67;;
12719;SDS011;6424;48.520;11.228;2023-03-05T15:39:54;16.43;;;10.10;;
12719;SDS011;6424;48.520;11.228;2023-03-05T15:42:20;19.13;;;11.27;;
12719;SDS011;6424;48.520;11.228;2023-03-05T15:45:01;21.57;;;11.67;;
12719;SDS011;6424;48.520;11.228;2023-03-05T15:47:42;26.67;;;17.07;;
12719;SDS011;6424;48.520;11.228;2023-03-05T15:50:23;18.47;;;12.30;;
12719;SDS011;6424;48.520;11.228;2023-03-05T15:53:03;17.30;;;11.20;;
12719;SDS011;6424;48.520;11.228;2023-03-05T15:55:44;19.70;;;10.93;;
12719;SDS011;6424;48.520;11.228;2023-03-05T15:58:25;17.90;;;10.80;;
12719;SDS011;6424;48.520;11.228;2023-03-05T16:01:06;17.57;;;10.23;;
12719;SDS011;6424;48.520;11.228;2023-03-05T16:03:47;16.80;;;11.57;;
12719;SDS011;6424;48.520;11.228;2023-03-05T16:06:13;18.20;;;10.90;;
12719;SDS011;6424;48.520;11.228;2023-03-05T16:08:59;24.03;;;12.43;;
12719;SDS011;6424;48.520;11.228;2023-03-05T16:11:42;24.53;;;12.97;;
12719;SDS011;6424;48.520;11.228;2023-03-05T16:14:30;19.83;;;11.33;;
12719;SDS011;6424;48.520;11.228;2023-03-05T16:16:57;19.10;;;12.03;;
12719;SDS011;6424;48.520;11.228;2023-03-05T16:19:41;18.87;;;11.07;;
12719;SDS011;6424;48.520;11.228;2023-03-05T16:22:08;21.77;;;12.23;;
12719;SDS011;6424;48.520;11.228;2023-03-05T16:24:49;17.70;;;12.27;;
12719;SDS011;6424;48.520;11.228;2023-03-05T16:27:30;17.67;;;10.97;;
12719;SDS011;6424;48.520;11.228;2023-03-05T16:30:12;18.37;;;12.93;;
12719;SDS011;6424;48.520;11.228;2023-03-05T16:32:54;23.80;;;13.07;;
12719;SDS011;6424;48.520;11.228;2023-03-05T16:35:20;17.80;;;12.23;;
12719;SDS011;6424;48.520;11.228;2023-03-05T16:38:01;19.37;;;12.17;;
12719;SDS011;6424;48.520;11.228;2023-03-05T16:40:42;16.77;;;11.63;;
12719;SDS011;6424;48.520;11.228;2023-03-05T16:43:23;17.97;;;10.53;;
12719;SDS011;6424;48.520;11.228;2023-03-05T16:45:49;14.40;;;11.10;;
12719;SDS011;6424;48.520;11.228;2023-03-05T16:48:29;19.97;;;11.63;;
12719;SDS011;6424;48.520;11.228;2023-03-05T16:50:55;17.07;;;10.90;;